createdAt,value
2023-01-18T00:01:14.331Z,99.90
2023-01-18T00:03:42.128Z,99.90
2023-01-18T00:06:10.591Z,99.90
2023-01-18T00:08:38.704Z,99.90
2023-01-18T00:11:07.864Z,99.90
2023-01-18T00:13:34.887Z,99.90
2023-01-18T00:16:11.174Z,99.90
2023-01-18T00:18:37.915Z,99.90
2023-01-18T00:21:07.097Z,99.90
2023-01-18T00:23:34.373Z,99.90
2023-01-18T00:26:02.136Z,99.90
2023-01-18T00:28:28.741Z,99.90
2023-01-18T00:30:55.834Z,99.90
2023-01-18T00:33:28.960Z,99.90
2023-01-18T00:36:00.650Z,99.90
2023-01-18T00:38:28.139Z,99.90
2023-01-18T00:40:57.941Z,99.90
2023-01-18T00:43:39.609Z,99.90
2023-01-18T00:46:11.088Z,99.90
2023-01-18T00:48:41.531Z,99.90
2023-01-18T00:51:10.384Z,99.90
2023-01-18T00:53:40.279Z,99.90
2023-01-18T00:56:09.078Z,99.90
2023-01-18T00:58:37.377Z,99.90
2023-01-18T01:01:08.082Z,99.90
2023-01-18T01:03:54.768Z,99.90
2023-01-18T01:06:44.276Z,99.90
2023-01-18T01:09:24.812Z,99.90
2023-01-18T01:12:11.129Z,99.90
2023-01-18T01:14:59.892Z,99.90
2023-01-18T01:17:47.641Z,99.90
2023-01-18T01:20:33.125Z,99.90
2023-01-18T01:23:29.949Z,99.90
2023-01-18T01:26:08.679Z,99.90
2023-01-18T01:28:40.456Z,99.90
2023-01-18T01:31:09.851Z,99.90
2023-01-18T01:33:37.114Z,99.90
2023-01-18T01:36:10.120Z,99.90
2023-01-18T01:38:37.140Z,99.90
2023-01-18T01:41:13.449Z,99.90
2023-01-18T01:43:42.994Z,99.90
2023-01-18T01:46:20.903Z,99.90
2023-01-18T01:48:48.816Z,99.90
2023-01-18T01:51:18.447Z,99.90
2023-01-18T01:53:48.432Z,99.90
2023-01-18T01:56:15.684Z,99.90
2023-01-18T01:58:43.327Z,99.90
2023-01-18T02:01:10.115Z,99.90
2023-01-18T02:03:40.200Z,99.90
2023-01-18T02:06:16.319Z,99.90
2023-01-18T02:08:47.179Z,99.90
2023-01-18T02:11:13.773Z,99.90
2023-01-18T02:13:40.433Z,99.90
2023-01-18T02:16:34.038Z,99.90
2023-01-18T02:19:36.455Z,99.90
2023-01-18T02:22:44.488Z,99.90
2023-01-18T02:25:49.793Z,99.90
2023-01-18T02:28:21.138Z,99.90
2023-01-18T02:30:58.483Z,99.90
2023-01-18T02:33:33.055Z,99.90
2023-01-18T02:36:04.017Z,99.90
2023-01-18T02:38:45.917Z,99.90
2023-01-18T02:42:00.901Z,99.90
2023-01-18T02:44:51.244Z,99.90
2023-01-18T02:47:18.032Z,99.90
2023-01-18T02:49:44.647Z,99.90
2023-01-18T02:52:38.244Z,99.90
2023-01-18T02:55:06.962Z,99.90
2023-01-18T02:57:34.214Z,99.90
2023-01-18T03:00:03.528Z,99.90
2023-01-18T03:02:30.338Z,99.90
2023-01-18T03:04:57.112Z,99.90
2023-01-18T03:07:32.910Z,99.90
2023-01-18T03:10:02.455Z,99.90
2023-01-18T03:12:46.401Z,99.90
2023-01-18T03:15:27.853Z,99.90
2023-01-18T03:17:58.158Z,99.90
2023-01-18T03:20:30.306Z,99.90
2023-01-18T03:23:34.753Z,99.90
2023-01-18T03:26:04.352Z,99.90
2023-01-18T03:29:01.714Z,99.90
2023-01-18T03:32:15.253Z,99.90
2023-01-18T03:35:08.298Z,99.90
2023-01-18T03:37:41.041Z,99.90
2023-01-18T03:40:15.547Z,99.90
2023-01-18T03:42:50.224Z,99.90
2023-01-18T03:45:48.537Z,99.90
2023-01-18T03:48:15.753Z,99.90
2023-01-18T03:51:06.752Z,99.90
2023-01-18T03:53:55.481Z,99.90
2023-01-18T03:56:32.918Z,99.80
2023-01-18T03:59:04.469Z,99.90
2023-01-18T04:01:31.804Z,99.70
2023-01-18T04:03:58.470Z,99.50
2023-01-18T04:06:25.670Z,99.50
2023-01-18T04:08:52.729Z,99.50
2023-01-18T04:11:19.593Z,99.30
2023-01-18T04:13:46.276Z,99.70
2023-01-18T04:16:12.914Z,99.90
2023-01-18T04:18:39.568Z,99.60
2023-01-18T04:21:06.206Z,99.50
2023-01-18T04:23:32.988Z,99.50
2023-01-18T04:25:59.548Z,99.60
2023-01-18T04:28:26.184Z,99.50
2023-01-18T04:30:54.607Z,99.50
2023-01-18T04:33:22.614Z,99.30
2023-01-18T04:35:50.129Z,99.40
2023-01-18T04:38:16.773Z,99.60
2023-01-18T04:40:43.376Z,99.50
2023-01-18T04:43:10.100Z,99.60
2023-01-18T04:45:36.785Z,99.60
2023-01-18T04:48:03.848Z,99.80
2023-01-18T04:50:30.502Z,99.80
2023-01-18T04:52:58.397Z,99.80
2023-01-18T04:55:25.272Z,99.80
2023-01-18T04:57:59.261Z,99.80
2023-01-18T05:00:25.966Z,99.90
2023-01-18T05:02:52.592Z,99.70
2023-01-18T05:05:19.238Z,99.80
2023-01-18T05:07:46.014Z,99.70
2023-01-18T05:10:13.019Z,99.90
2023-01-18T05:12:39.667Z,99.70
2023-01-18T05:15:06.853Z,99.90
2023-01-18T05:17:35.127Z,99.90
2023-01-18T05:20:04.338Z,99.90
2023-01-18T05:22:32.913Z,99.90
2023-01-18T05:24:59.924Z,99.90
2023-01-18T05:27:26.581Z,99.90
2023-01-18T05:29:53.322Z,99.90
2023-01-18T05:32:20.092Z,99.90
2023-01-18T05:34:46.717Z,99.90
2023-01-18T05:37:13.374Z,99.90
2023-01-18T05:39:39.983Z,99.90
2023-01-18T05:42:06.817Z,99.90
2023-01-18T05:44:33.471Z,99.80
2023-01-18T05:47:00.221Z,99.90
2023-01-18T05:49:28.336Z,99.80
2023-01-18T05:51:54.916Z,99.90
2023-01-18T05:54:21.524Z,99.80
2023-01-18T05:56:48.128Z,99.80
2023-01-18T05:59:15.558Z,99.90
2023-01-18T06:01:42.795Z,99.80
2023-01-18T06:04:09.760Z,99.90
2023-01-18T06:06:36.349Z,99.90
2023-01-18T06:09:03.483Z,99.90
2023-01-18T06:11:30.396Z,99.90
2023-01-18T06:13:57.029Z,99.90
2023-01-18T06:16:24.536Z,99.80
2023-01-18T06:18:51.323Z,99.80
2023-01-18T06:21:18.764Z,99.90
2023-01-18T06:23:45.373Z,99.90
2023-01-18T06:26:12.003Z,51.00
2023-01-18T06:28:38.642Z,47.80
2023-01-18T06:31:08.118Z,54.20
2023-01-18T06:33:34.860Z,55.20
2023-01-18T06:36:01.675Z,49.70
2023-01-18T06:38:29.619Z,53.70
2023-01-18T06:40:56.236Z,54.00
2023-01-18T06:43:23.005Z,51.90
2023-01-18T06:45:56.358Z,48.80
2023-01-18T06:48:26.602Z,51.10
2023-01-18T06:50:56.749Z,58.20
2023-01-18T06:53:23.520Z,55.00
2023-01-18T06:56:01.675Z,53.90
2023-01-18T06:58:31.033Z,63.60
2023-01-18T07:00:59.387Z,60.80
2023-01-18T07:03:27.664Z,59.70
2023-01-18T07:05:58.729Z,60.70
2023-01-18T07:08:26.909Z,51.00
2023-01-18T07:10:54.169Z,50.50
2023-01-18T07:13:21.884Z,51.10
2023-01-18T07:15:57.987Z,52.70
2023-01-18T07:18:26.283Z,54.90
2023-01-18T07:21:01.076Z,45.40
2023-01-18T07:23:29.014Z,49.40
2023-01-18T07:26:06.603Z,48.70
2023-01-18T07:28:34.323Z,53.30
2023-01-18T07:31:01.473Z,44.90
2023-01-18T07:33:28.628Z,48.90
2023-01-18T07:35:57.115Z,50.30
2023-01-18T07:38:24.917Z,57.00
2023-01-18T07:40:57.446Z,54.00
2023-01-18T07:43:24.168Z,61.30
2023-01-18T07:45:54.399Z,55.20
2023-01-18T07:48:21.862Z,48.30
2023-01-18T07:50:55.424Z,56.10
2023-01-18T07:53:22.638Z,65.20
2023-01-18T07:55:49.779Z,63.90
2023-01-18T07:58:17.472Z,63.70
2023-01-18T08:00:45.023Z,67.30
2023-01-18T08:03:16.550Z,58.30
2023-01-18T08:05:44.418Z,63.70
2023-01-18T08:08:13.045Z,61.60
2023-01-18T08:10:40.336Z,76.60
2023-01-18T08:13:10.798Z,66.00
2023-01-18T08:15:40.620Z,74.60
2023-01-18T08:18:08.185Z,61.00
2023-01-18T08:20:34.849Z,62.80
2023-01-18T08:23:02.488Z,53.30
2023-01-18T08:25:31.528Z,57.50
2023-01-18T08:27:59.727Z,50.10
2023-01-18T08:30:31.558Z,51.20
2023-01-18T08:33:00.553Z,49.50
2023-01-18T08:35:29.972Z,48.20
2023-01-18T08:37:56.687Z,49.80
2023-01-18T08:40:23.695Z,45.40
2023-01-18T08:42:50.334Z,42.50
2023-01-18T08:45:17.754Z,40.30
2023-01-18T08:47:44.359Z,46.10
2023-01-18T08:50:13.825Z,41.20
2023-01-18T08:52:40.600Z,44.20
2023-01-18T08:55:07.847Z,42.90
2023-01-18T08:57:34.538Z,41.40
2023-01-18T09:00:04.224Z,38.60
2023-01-18T09:02:30.892Z,43.70
2023-01-18T09:04:58.153Z,50.10
2023-01-18T09:07:24.736Z,53.80
2023-01-18T09:09:51.369Z,58.80
2023-01-18T09:12:18.207Z,56.00
2023-01-18T09:14:44.921Z,57.00
2023-01-18T09:17:11.554Z,52.10
2023-01-18T09:19:38.135Z,74.00
2023-01-18T09:22:06.268Z,48.20
2023-01-18T09:24:33.184Z,47.00
2023-01-18T09:26:59.801Z,43.80
2023-01-18T09:29:26.374Z,40.70
2023-01-18T09:31:54.200Z,48.40
2023-01-18T09:34:21.674Z,46.00
2023-01-18T09:36:52.288Z,45.90
2023-01-18T09:39:20.187Z,45.80
2023-01-18T09:41:56.299Z,45.10
2023-01-18T09:44:35.921Z,43.20
2023-01-18T09:47:24.833Z,46.10
2023-01-18T09:49:57.351Z,57.20
2023-01-18T09:52:40.587Z,53.30
2023-01-18T09:55:33.133Z,54.60
2023-01-18T09:58:37.972Z,49.40
2023-01-18T10:01:19.518Z,56.40
2023-01-18T10:03:53.731Z,53.00
2023-01-18T10:06:30.222Z,47.20
2023-01-18T10:09:07.561Z,44.70
2023-01-18T10:11:47.338Z,45.90
2023-01-18T10:15:04.335Z,45.70
2023-01-18T10:17:38.297Z,49.90
2023-01-18T10:20:16.993Z,54.00
2023-01-18T10:22:49.913Z,52.10
2023-01-18T10:25:34.942Z,43.70
2023-01-18T10:28:11.532Z,49.40
2023-01-18T10:30:55.650Z,50.20
2023-01-18T10:33:25.697Z,46.50
2023-01-18T10:35:57.215Z,50.20
2023-01-18T10:38:28.331Z,45.90
2023-01-18T10:41:00.314Z,47.80
2023-01-18T10:43:29.306Z,46.60
2023-01-18T10:45:56.269Z,48.10
2023-01-18T10:48:32.612Z,43.20
2023-01-18T10:51:01.956Z,45.00
2023-01-18T10:53:35.085Z,51.00
2023-01-18T10:56:09.335Z,51.40
2023-01-18T10:58:50.320Z,42.10
2023-01-18T11:01:27.588Z,42.50
2023-01-18T11:04:05.653Z,35.30
2023-01-18T11:06:44.591Z,28.40
2023-01-18T11:09:39.432Z,23.10
2023-01-18T11:12:37.549Z,22.40
2023-01-18T11:15:13.334Z,29.20
2023-01-18T11:17:44.924Z,48.50
2023-01-18T11:20:25.561Z,35.40
2023-01-18T11:23:00.450Z,99.20
2023-01-18T11:25:39.611Z,99.30
2023-01-18T11:28:27.428Z,99.60
2023-01-18T11:31:07.422Z,99.40
2023-01-18T11:33:34.705Z,99.80
2023-01-18T11:36:02.797Z,99.50
2023-01-18T11:38:33.694Z,99.50
2023-01-18T11:41:15.252Z,99.70
2023-01-18T11:43:58.582Z,99.60
2023-01-18T11:46:40.664Z,99.60
2023-01-18T11:49:29.278Z,99.50
2023-01-18T11:52:09.061Z,99.40
2023-01-18T11:54:41.651Z,99.70
2023-01-18T11:57:12.356Z,99.90
2023-01-18T11:59:45.502Z,99.60
2023-01-18T12:02:24.171Z,99.80
2023-01-18T12:05:30.944Z,99.20
2023-01-18T12:08:15.625Z,99.60
2023-01-18T12:11:03.939Z,99.90
2023-01-18T12:13:50.215Z,99.50
2023-01-18T12:16:48.501Z,99.90
2023-01-18T12:19:41.694Z,99.90
2023-01-18T12:22:38.947Z,99.60
2023-01-18T12:25:39.549Z,99.60
2023-01-18T12:28:28.078Z,99.90
2023-01-18T12:31:06.736Z,99.70
2023-01-18T12:33:44.247Z,99.30
2023-01-18T12:36:55.347Z,99.60
2023-01-18T12:39:54.010Z,99.90
2023-01-18T12:42:40.279Z,99.10
2023-01-18T12:45:15.939Z,99.50
2023-01-18T12:47:51.784Z,99.40
2023-01-18T12:50:25.693Z,98.90
2023-01-18T12:52:57.579Z,98.80
2023-01-18T12:55:28.393Z,98.60
2023-01-18T12:58:01.297Z,98.20
2023-01-18T13:00:40.141Z,98.00
2023-01-18T13:03:13.454Z,98.20
2023-01-18T13:05:55.382Z,98.60
2023-01-18T13:08:36.456Z,98.30
2023-01-18T13:11:08.964Z,98.80
2023-01-18T13:13:36.414Z,98.70
2023-01-18T13:16:19.120Z,98.60
2023-01-18T13:18:59.410Z,98.20
2023-01-18T13:21:40.025Z,98.40
2023-01-18T13:24:27.884Z,97.30
2023-01-18T13:27:09.765Z,97.70
2023-01-18T13:29:36.806Z,98.00
2023-01-18T13:32:03.852Z,98.00
2023-01-18T13:34:47.319Z,97.80
2023-01-18T13:37:42.736Z,98.00
2023-01-18T13:40:37.499Z,97.30
2023-01-18T13:43:06.023Z,98.40
2023-01-18T13:45:52.909Z,97.80
2023-01-18T13:48:41.382Z,97.10
2023-01-18T13:51:11.812Z,97.20
2023-01-18T13:53:49.785Z,98.00
2023-01-18T13:56:31.410Z,96.70
2023-01-18T13:59:04.422Z,97.00
2023-01-18T14:01:36.533Z,96.90
2023-01-18T14:04:21.881Z,96.80
2023-01-18T14:06:49.602Z,97.20
2023-01-18T14:09:18.411Z,96.70
2023-01-18T14:11:54.295Z,95.70
2023-01-18T14:14:20.887Z,95.60
2023-01-18T14:17:23.680Z,94.80
2023-01-18T14:19:59.984Z,95.60
2023-01-18T14:22:33.331Z,94.60
2023-01-18T14:25:28.508Z,95.10
2023-01-18T14:28:07.912Z,95.40
2023-01-18T14:30:37.457Z,95.60
2023-01-18T14:33:15.917Z,95.30
2023-01-18T14:36:00.804Z,95.40
2023-01-18T14:38:29.181Z,95.60
2023-01-18T14:40:59.535Z,96.10
2023-01-18T14:43:41.086Z,95.80
2023-01-18T14:46:21.352Z,96.10
2023-01-18T14:48:57.059Z,96.20
2023-01-18T14:51:26.467Z,96.30
2023-01-18T14:53:57.786Z,96.50
2023-01-18T14:56:30.189Z,96.80
2023-01-18T14:58:59.695Z,96.90
2023-01-18T15:01:38.877Z,96.50
2023-01-18T15:04:18.304Z,96.40
2023-01-18T15:06:55.191Z,96.50
2023-01-18T15:09:23.296Z,96.80
2023-01-18T15:11:52.316Z,96.90
2023-01-18T15:14:29.067Z,97.00
2023-01-18T15:16:58.620Z,97.00
2023-01-18T15:19:41.838Z,96.90
2023-01-18T15:22:13.153Z,97.10
2023-01-18T15:24:41.657Z,97.50
2023-01-18T15:27:18.904Z,97.40
2023-01-18T15:29:53.507Z,97.40
2023-01-18T15:32:22.425Z,97.50
2023-01-18T15:34:51.359Z,97.80
2023-01-18T15:37:30.341Z,97.50
2023-01-18T15:39:57.667Z,97.70
2023-01-18T15:42:39.369Z,97.60
2023-01-18T15:45:21.691Z,98.10
2023-01-18T15:47:52.040Z,97.80
2023-01-18T15:50:20.235Z,97.80
2023-01-18T15:52:53.803Z,97.80
2023-01-18T15:55:30.245Z,98.10
2023-01-18T15:58:03.128Z,98.00
2023-01-18T16:00:42.452Z,98.20
2023-01-18T16:03:36.943Z,98.00
2023-01-18T16:06:11.034Z,98.00
2023-01-18T16:08:59.523Z,97.90
2023-01-18T16:11:41.246Z,98.00
2023-01-18T16:14:38.212Z,98.30
2023-01-18T16:17:14.345Z,98.10
2023-01-18T16:19:49.779Z,98.30
2023-01-18T16:22:29.631Z,98.20
2023-01-18T16:25:18.255Z,98.10
2023-01-18T16:27:57.141Z,98.10
2023-01-18T16:30:39.328Z,98.10
2023-01-18T16:33:13.237Z,98.00
2023-01-18T16:35:41.767Z,98.20
2023-01-18T16:38:12.901Z,98.20
2023-01-18T16:40:42.904Z,98.50
2023-01-18T16:43:20.034Z,98.10
2023-01-18T16:45:49.272Z,98.40
2023-01-18T16:48:18.702Z,98.20
2023-01-18T16:50:45.989Z,98.50
2023-01-18T16:53:13.469Z,98.30
2023-01-18T16:55:40.695Z,98.40
2023-01-18T16:58:07.381Z,98.20
2023-01-18T17:00:41.888Z,98.60
2023-01-18T17:03:08.678Z,98.80
2023-01-18T17:05:35.350Z,98.50
2023-01-18T17:08:02.325Z,98.60
2023-01-18T17:10:35.115Z,98.60
2023-01-18T17:13:02.719Z,98.50
2023-01-18T17:18:25.560Z,98.40
2023-01-18T17:20:53.394Z,98.60
2023-01-18T17:23:20.739Z,98.50
2023-01-18T17:25:47.385Z,98.80
2023-01-18T17:28:15.555Z,98.60
2023-01-18T17:30:49.397Z,98.80
2023-01-18T17:33:31.566Z,98.50
2023-01-18T17:35:58.428Z,98.70
2023-01-18T17:38:28.828Z,99.10
2023-01-18T17:40:57.666Z,98.80
2023-01-18T17:43:39.583Z,98.80
2023-01-18T17:46:06.849Z,99.00
2023-01-18T17:48:33.762Z,98.80
2023-01-18T17:51:00.518Z,98.80
2023-01-18T17:53:27.286Z,98.90
2023-01-18T17:55:53.880Z,99.00
2023-01-18T17:58:20.519Z,99.20
2023-01-18T18:00:47.183Z,98.90
2023-01-18T18:03:13.942Z,98.60
2023-01-18T18:05:40.575Z,1.00
2023-01-18T18:08:07.710Z,1.00
2023-01-18T18:10:34.333Z,7.80
2023-01-18T18:13:01.385Z,1.00
2023-01-18T18:15:28.246Z,1.00
2023-01-18T18:17:54.911Z,1.00
2023-01-18T18:20:22.728Z,1.00
2023-01-18T18:22:49.691Z,1.00
2023-01-18T18:25:16.409Z,1.00
2023-01-18T18:27:46.470Z,1.00
2023-01-18T18:30:14.370Z,1.00
2023-01-18T18:32:40.962Z,1.00
2023-01-18T18:35:23.165Z,1.80
2023-01-18T18:37:51.220Z,1.00
2023-01-18T18:40:18.774Z,1.00
2023-01-18T18:42:56.382Z,1.00
2023-01-18T18:45:27.950Z,1.00
2023-01-18T18:47:54.589Z,1.00
2023-01-18T18:50:21.254Z,1.00
2023-01-18T18:52:50.694Z,1.00
2023-01-18T18:55:17.497Z,1.00
2023-01-18T18:57:44.208Z,1.00
2023-01-18T19:00:11.503Z,1.00
2023-01-18T19:02:38.184Z,1.00
2023-01-18T19:05:05.952Z,1.00
2023-01-18T19:07:34.737Z,1.00
2023-01-18T19:10:01.481Z,1.00
2023-01-18T19:12:28.099Z,1.00
2023-01-18T19:14:54.725Z,1.00
2023-01-18T19:17:30.281Z,1.00
2023-01-18T19:20:10.044Z,12.80
2023-01-18T19:22:40.033Z,1.00
2023-01-18T19:25:07.317Z,1.00
2023-01-18T19:27:34.175Z,1.00
2023-01-18T19:30:03.170Z,1.00
2023-01-18T19:32:29.785Z,1.00
2023-01-18T19:34:56.357Z,1.00
2023-01-18T19:37:22.997Z,1.00
2023-01-18T19:39:49.912Z,1.00
2023-01-18T19:42:16.518Z,1.00
2023-01-18T19:44:43.342Z,1.00
2023-01-18T19:47:09.984Z,1.00
2023-01-18T19:49:36.630Z,1.00
2023-01-18T19:52:03.315Z,1.00
2023-01-18T19:54:29.892Z,1.00
2023-01-18T19:56:56.476Z,1.00
2023-01-18T19:59:23.100Z,1.00
2023-01-18T20:01:51.609Z,1.00
2023-01-18T20:04:18.373Z,1.00
2023-01-18T20:06:46.157Z,1.00
2023-01-18T20:09:19.847Z,1.00
2023-01-18T20:11:48.651Z,1.00
2023-01-18T20:14:15.536Z,1.00
2023-01-18T20:16:43.902Z,11.20
2023-01-18T20:19:13.202Z,11.20
2023-01-18T20:21:39.804Z,7.10
2023-01-18T20:24:06.739Z,13.80
2023-01-18T20:26:37.293Z,15.40
2023-01-18T20:29:08.360Z,11.10
2023-01-18T20:31:36.934Z,14.00
2023-01-18T20:34:04.616Z,24.40
2023-01-18T20:36:31.482Z,12.80
2023-01-18T20:38:58.470Z,3.50
2023-01-18T20:41:25.062Z,9.10
2023-01-18T20:43:52.024Z,6.60
2023-01-18T20:46:18.640Z,17.10
2023-01-18T20:48:45.273Z,15.80
2023-01-18T20:51:12.016Z,9.00
2023-01-18T20:53:38.649Z,5.10
2023-01-18T20:56:11.952Z,1.00
2023-01-18T20:58:50.208Z,1.00
2023-01-18T21:01:17.241Z,1.00
2023-01-18T21:03:53.094Z,1.00
2023-01-18T21:06:19.907Z,1.00
2023-01-18T21:08:46.594Z,1.00
2023-01-18T21:11:14.964Z,1.00
2023-01-18T21:13:41.612Z,1.00
2023-01-18T21:16:08.379Z,1.00
2023-01-18T21:18:37.496Z,1.00
2023-01-18T21:21:04.721Z,1.00
2023-01-18T21:23:39.351Z,1.00
2023-01-18T21:26:08.356Z,1.00
2023-01-18T21:28:35.126Z,1.00
2023-01-18T21:31:02.571Z,1.00
2023-01-18T21:33:29.550Z,1.00
2023-01-18T21:36:01.895Z,1.00
2023-01-18T21:38:29.523Z,1.00
2023-01-18T21:40:56.216Z,1.00
2023-01-18T21:43:41.427Z,1.00
2023-01-18T21:46:10.923Z,1.00
2023-01-18T21:48:37.623Z,1.00
2023-01-18T21:51:23.956Z,1.00
2023-01-18T21:54:09.252Z,1.00
2023-01-18T21:56:38.709Z,1.00
2023-01-18T21:59:05.303Z,1.00
2023-01-18T22:01:34.858Z,1.00
2023-01-18T22:04:22.589Z,1.00
2023-01-18T22:06:49.758Z,1.00
2023-01-18T22:09:16.839Z,1.00
2023-01-18T22:11:44.005Z,1.00
2023-01-18T22:14:10.872Z,1.00
2023-01-18T22:16:37.998Z,1.00
2023-01-18T22:19:05.013Z,1.00
2023-01-18T22:21:32.451Z,1.00
2023-01-18T22:23:59.719Z,1.00
2023-01-18T22:26:28.878Z,1.00
2023-01-18T22:28:56.397Z,1.00
2023-01-18T22:31:23.152Z,1.00
2023-01-18T22:33:49.877Z,1.00
2023-01-18T22:36:16.786Z,1.00
2023-01-18T22:38:43.869Z,1.00
2023-01-18T22:41:12.896Z,1.00
2023-01-18T22:43:40.262Z,1.00
2023-01-18T22:46:08.564Z,1.00
2023-01-18T22:48:36.707Z,1.00
2023-01-18T22:51:05.292Z,1.00
2023-01-18T22:53:33.308Z,1.00
2023-01-18T22:56:05.162Z,1.00
2023-01-18T22:58:32.066Z,12.80
2023-01-18T23:00:58.999Z,1.00
2023-01-18T23:03:25.800Z,1.00
2023-01-18T23:05:57.485Z,1.00
2023-01-18T23:08:44.435Z,1.00
2023-01-18T23:11:25.620Z,2.80
2023-01-18T23:14:14.008Z,32.20
2023-01-18T23:16:59.465Z,34.00
2023-01-18T23:19:28.212Z,33.80
2023-01-18T23:21:56.131Z,81.90
2023-01-18T23:24:23.217Z,99.70
2023-01-18T23:26:50.687Z,99.90
2023-01-18T23:29:17.965Z,99.90
2023-01-18T23:31:44.563Z,99.90
2023-01-18T23:34:11.213Z,99.90
2023-01-18T23:36:37.848Z,99.90
2023-01-18T23:39:23.020Z,99.90
2023-01-18T23:42:08.476Z,99.90
2023-01-18T23:44:53.914Z,99.90
2023-01-18T23:47:39.492Z,99.90
2023-01-18T23:50:28.388Z,99.90
2023-01-18T23:53:13.791Z,99.90
2023-01-18T23:55:41.364Z,99.90
2023-01-18T23:58:08.064Z,99.90
